Time;durP1;ratioP1;P1;durP2;ratioP2;P2;SDS_P1;SDS_P2;PMS_P1;PMS_P2;Temp;Humidity;BMP_temperature;BMP_pressure;BME280_temperature;BME280_humidity;BME280_pressure;Samples;Min_cycle;Max_cycle;Signal;HPM_P1;HPM_P2
2022/01/15 00:00:53;;;;;;;28.40;11.38;;;6.50;99.90;;;;;;5055823;28;20115;-83
2022/01/15 00:03:19;;;;;;;27.13;10.75;;;6.10;99.90;;;;;;5073260;28;20045;-83
2022/01/15 00:05:45;;;;;;;24.02;11.02;;;6.10;99.90;;;;;;5073675;28;20052;-85
2022/01/15 00:08:11;;;;;;;37.80;11.10;;;6.10;99.90;;;;;;5073576;28;20040;-83
2022/01/15 00:10:37;;;;;;;31.60;11.57;;;6.10;99.90;;;;;;5073395;28;20086;-83
2022/01/15 00:13:03;;;;;;;28.80;11.77;;;6.10;99.90;;;;;;5073410;28;20040;-82
2022/01/15 00:15:36;;;;;;;25.73;11.75;;;6.10;99.90;;;;;;5073398;28;20051;-83
2022/01/15 00:18:10;;;;;;;30.90;10.50;;;6.10;99.90;;;;;;5073001;28;20171;-83
2022/01/15 00:20:36;;;;;;;23.02;10.68;;;6.10;99.90;;;;;;5073791;28;20048;-81
2022/01/15 00:23:02;;;;;;;22.25;10.98;;;6.10;99.90;;;;;;5073538;28;20041;-83
2022/01/15 00:25:34;;;;;;;26.80;10.77;;;6.90;99.90;;;;;;5073808;28;20462;-89
2022/01/15 00:28:04;;;;;;;30.92;10.95;;;6.10;99.90;;;;;;5073424;28;20511;-86
2022/01/15 00:30:30;;;;;;;22.83;9.98;;;6.10;99.90;;;;;;5072047;28;20098;-83
2022/01/15 00:32:55;;;;;;;24.27;10.65;;;6.10;99.90;;;;;;5054947;28;20060;-83
2022/01/15 00:35:23;;;;;;;22.23;9.57;;;6.10;99.90;;;;;;5071558;28;20117;-89
2022/01/15 00:37:49;;;;;;;20.35;9.80;;;6.10;99.90;;;;;;5072825;28;20056;-84
2022/01/15 00:40:19;;;;;;;29.85;11.48;;;6.10;99.90;;;;;;5071617;28;20055;-83
2022/01/15 00:42:45;;;;;;;25.90;11.02;;;6.10;99.90;;;;;;5072936;28;20055;-82
2022/01/15 00:45:17;;;;;;;21.30;9.52;;;6.10;99.90;;;;;;5072604;28;20554;-82
2022/01/15 00:47:44;;;;;;;22.05;10.20;;;6.10;99.90;;;;;;5072592;28;20048;-84
2022/01/15 00:50:10;;;;;;;20.45;9.23;;;6.10;99.90;;;;;;5054634;28;20068;-83
2022/01/15 00:52:37;;;;;;;25.75;10.77;;;6.10;99.90;;;;;;5053990;22;20049;-88
2022/01/15 00:55:04;;;;;;;28.58;11.52;;;6.10;99.90;;;;;;5047809;28;20084;-82
2022/01/15 00:57:30;;;;;;;20.35;9.85;;;6.10;99.90;;;;;;5014913;28;20049;-90
2022/01/15 00:59:56;;;;;;;21.48;9.93;;;6.10;99.90;;;;;;5014916;28;20059;-82
2022/01/15 01:02:23;;;;;;;25.17;10.48;;;6.10;99.90;;;;;;5031441;28;20396;-83
2022/01/15 01:04:49;;;;;;;24.00;9.80;;;6.30;99.90;;;;;;5015039;28;20089;-90
2022/01/15 01:07:15;;;;;;;20.85;9.38;;;6.50;99.90;;;;;;5014482;28;20081;-88
2022/01/15 01:12:57;;;;;;;18.55;8.73;;;6.10;99.90;;;;;;4990610;28;20205;-86
2022/01/15 01:23:30;;;;;;;12.70;6.22;;;6.30;99.90;;;;;;4973854;28;20054;-84
2022/01/15 01:26:08;;;;;;;13.43;6.85;;;6.10;99.90;;;;;;4957723;28;20061;-89
2022/01/15 01:28:42;;;;;;;9.55;5.05;;;6.10;99.90;;;;;;4974312;28;20058;-83
2022/01/15 01:31:29;;;;;;;11.05;5.32;;;6.00;99.90;;;;;;4990215;28;20058;-81
2022/01/15 01:34:04;;;;;;;9.73;4.85;;;6.00;99.90;;;;;;4989785;28;20089;-84
2022/01/15 01:36:47;;;;;;;;;;;6.00;99.90;;;;;;4990289;28;20062;-90
2022/01/15 01:39:18;;;;;;;9.90;4.63;;;6.60;99.90;;;;;;4973691;28;20012;-90
2022/01/15 01:42:03;;;;;;;12.40;5.80;;;6.00;99.90;;;;;;4990079;28;20757;-90
2022/01/15 01:44:29;;;;;;;14.43;7.13;;;6.70;99.90;;;;;;4973737;28;20054;-82
2022/01/15 01:47:03;;;;;;;14.88;7.65;;;6.00;99.90;;;;;;4989747;28;20129;-83
2022/01/15 01:49:28;;;;;;;13.27;6.87;;;6.00;99.90;;;;;;5009581;28;20068;-83
2022/01/15 01:51:54;;;;;;;9.55;4.60;;;6.00;99.90;;;;;;5030227;28;20053;-82
2022/01/15 01:54:20;;;;;;;7.95;3.88;;;6.00;99.90;;;;;;5031444;28;20057;-83
2022/01/15 01:56:47;;;;;;;5.13;2.20;;;6.00;99.90;;;;;;5030192;28;20041;-83
2022/01/15 01:59:16;;;;;;;4.88;2.25;;;6.20;99.90;;;;;;5031374;28;20103;-83
2022/01/15 02:01:45;;;;;;;5.20;2.25;;;6.00;99.90;;;;;;5031606;28;20081;-89
2022/01/15 02:04:10;;;;;;;3.88;1.80;;;6.00;99.90;;;;;;5029972;28;20086;-84
2022/01/15 02:06:36;;;;;;;5.05;1.85;;;6.00;99.90;;;;;;5031375;28;20073;-83
2022/01/15 02:09:05;;;;;;;4.90;2.13;;;6.00;99.90;;;;;;5031399;28;20049;-83
2022/01/15 02:11:31;;;;;;;4.85;2.13;;;6.60;99.90;;;;;;5031522;28;20387;-83
2022/01/15 02:13:57;;;;;;;3.97;1.98;;;5.90;99.90;;;;;;5031196;28;20045;-84
2022/01/15 02:16:23;;;;;;;4.85;2.70;;;6.10;99.90;;;;;;5024458;28;20055;-83
2022/01/15 02:18:56;;;;;;;5.15;2.22;;;6.20;99.90;;;;;;5050379;28;20041;-90
2022/01/15 02:24:06;;;;;;;6.18;2.47;;;6.00;99.90;;;;;;5051076;28;20048;-90
2022/01/15 02:26:35;;;;;;;4.60;2.28;;;6.00;99.90;;;;;;5049764;28;20075;-85
2022/01/15 02:29:02;;;;;;;5.00;2.40;;;6.40;99.90;;;;;;5050864;28;20049;-89
2022/01/15 02:31:30;;;;;;;5.80;2.80;;;6.00;99.90;;;;;;5051223;28;20055;-83
2022/01/15 02:33:58;;;;;;;5.55;3.05;;;6.00;99.90;;;;;;5050853;28;20124;-83
2022/01/15 02:36:33;;;;;;;5.53;3.05;;;6.00;99.90;;;;;;5049274;28;20051;-86
2022/01/15 02:38:59;;;;;;;5.10;2.50;;;6.00;99.90;;;;;;5050932;28;20095;-86
2022/01/15 02:41:31;;;;;;;5.57;2.70;;;5.90;99.90;;;;;;5051012;28;20049;-85
2022/01/15 02:43:58;;;;;;;4.93;2.58;;;6.00;99.90;;;;;;5049366;28;20130;-88
2022/01/15 02:48:00;;;;;;;5.25;2.70;;;5.90;99.90;;;;;;5037051;28;20049;-86
2022/01/15 02:49:10;;;;;;;6.97;3.40;;;6.00;99.90;;;;;;5030794;28;20087;-86
2022/01/15 02:51:36;;;;;;;6.70;3.20;;;6.00;99.90;;;;;;5030545;28;20073;-90
2022/01/15 02:54:04;;;;;;;6.22;2.90;;;5.90;99.90;;;;;;5012685;28;20119;-90
2022/01/15 02:56:38;;;;;;;6.55;2.88;;;6.50;99.90;;;;;;5013181;28;20056;-83
2022/01/15 02:59:06;;;;;;;6.68;3.35;;;6.30;99.90;;;;;;5029417;28;20575;-86
2022/01/15 03:01:32;;;;;;;7.40;3.50;;;5.90;99.90;;;;;;5030548;28;20061;-85
2022/01/15 03:03:58;;;;;;;6.28;3.08;;;5.90;99.90;;;;;;5047694;28;20048;-87
2022/01/15 03:06:24;;;;;;;8.13;3.17;;;6.50;99.90;;;;;;5050764;28;20541;-90
2022/01/15 03:08:51;;;;;;;6.97;3.15;;;5.90;99.90;;;;;;5048659;28;20422;-82
2022/01/15 03:11:17;;;;;;;5.43;2.67;;;5.90;99.90;;;;;;5066258;28;20435;-85
2022/01/15 03:13:44;;;;;;;6.82;3.38;;;6.50;99.90;;;;;;5050475;28;20111;-89
2022/01/15 03:16:16;;;;;;;5.90;2.83;;;6.40;99.90;;;;;;5050210;28;20073;-87
2022/01/15 03:18:43;;;;;;;7.15;3.10;;;5.90;99.90;;;;;;5049113;28;20484;-89
2022/01/15 03:21:09;;;;;;;6.95;3.35;;;5.90;99.90;;;;;;5066132;28;20549;-84
2022/01/15 03:23:35;;;;;;;6.28;3.22;;;5.90;99.90;;;;;;5049804;28;20175;-87
2022/01/15 03:26:02;;;;;;;6.70;3.22;;;5.90;99.90;;;;;;5050734;28;20713;-86
2022/01/15 03:28:27;;;;;;;8.32;3.85;;;5.80;99.90;;;;;;5050370;28;20072;-86
2022/01/15 03:30:53;;;;;;;6.78;3.45;;;5.90;99.90;;;;;;5051667;28;20113;-88
2022/01/15 03:33:19;;;;;;;6.85;3.63;;;5.80;99.90;;;;;;5054503;28;20041;-89
2022/01/15 03:35:46;;;;;;;7.32;3.70;;;5.80;99.90;;;;;;5052273;28;20610;-84
2022/01/15 03:38:11;;;;;;;6.60;3.70;;;5.90;99.90;;;;;;5054108;28;20142;-86
2022/01/15 03:40:37;;;;;;;7.75;3.85;;;5.80;99.90;;;;;;5053394;28;20492;-83
2022/01/15 03:43:04;;;;;;;9.70;4.07;;;5.80;99.90;;;;;;5040146;28;20080;-90
2022/01/15 03:45:30;;;;;;;7.88;3.53;;;6.30;99.90;;;;;;5014145;28;20489;-89
2022/01/15 03:47:59;;;;;;;7.82;3.67;;;5.80;99.90;;;;;;4996945;28;20042;-88
2022/01/15 03:50:26;;;;;;;6.88;3.80;;;5.80;99.90;;;;;;5014426;28;20050;-84
2022/01/15 03:52:52;;;;;;;8.10;3.55;;;5.80;99.90;;;;;;5014206;28;20058;-84
2022/01/15 03:55:20;;;;;;;9.52;3.60;;;5.80;99.90;;;;;;5013933;28;20050;-85
2022/01/15 03:57:45;;;;;;;7.47;3.72;;;6.20;99.90;;;;;;5014278;28;20050;-89
2022/01/15 04:00:29;;;;;;;7.78;3.42;;;5.80;99.90;;;;;;5010606;28;20044;-80
2022/01/15 04:02:59;;;;;;;13.95;4.63;;;5.80;99.90;;;;;;5033657;28;20054;-80
2022/01/15 04:05:35;;;;;;;9.55;3.83;;;5.80;99.90;;;;;;5033758;28;20064;-80
2022/01/15 04:08:00;;;;;;;9.40;4.20;;;5.80;99.90;;;;;;5032231;28;20110;-90
2022/01/15 04:10:26;;;;;;;10.00;4.68;;;6.10;99.90;;;;;;5034700;28;20037;-87
2022/01/15 04:12:52;;;;;;;10.55;3.97;;;5.80;99.90;;;;;;5016458;28;20100;-85
2022/01/15 04:15:18;;;;;;;8.05;4.15;;;5.80;99.90;;;;;;5021164;28;20044;-86
2022/01/15 04:17:46;;;;;;;12.98;5.20;;;5.80;99.90;;;;;;5033825;28;20179;-87
2022/01/15 04:20:13;;;;;;;9.00;4.38;;;5.80;99.90;;;;;;5033414;28;20053;-87
2022/01/15 04:22:40;;;;;;;8.50;4.18;;;5.80;99.90;;;;;;5032134;28;20045;-85
2022/01/15 04:25:06;;;;;;;9.95;4.72;;;5.80;99.90;;;;;;5033279;28;20053;-85
2022/01/15 04:27:32;;;;;;;8.43;4.20;;;5.80;99.90;;;;;;5048059;28;20483;-83
2022/01/15 04:30:02;;;;;;;9.68;4.72;;;5.80;99.90;;;;;;5052905;28;20095;-89
2022/01/15 04:32:28;;;;;;;11.75;5.15;;;5.80;99.90;;;;;;5068206;28;20053;-89
2022/01/15 04:34:53;;;;;;;11.10;4.60;;;6.40;99.90;;;;;;5052755;28;20045;-88
2022/01/15 04:37:22;;;;;;;11.63;4.85;;;5.70;99.90;;;;;;5050147;28;20045;-90
2022/01/15 04:39:48;;;;;;;10.63;4.60;;;6.20;99.90;;;;;;5051693;28;20057;-89
2022/01/15 04:42:20;;;;;;;13.38;4.85;;;5.70;99.90;;;;;;5038611;28;20042;-86
2022/01/15 04:44:46;;;;;;;9.95;4.50;;;5.80;99.90;;;;;;5033155;28;20048;-84
2022/01/15 04:47:12;;;;;;;15.40;5.85;;;5.70;99.90;;;;;;5050823;28;20464;-89
2022/01/15 04:49:38;;;;;;;10.95;5.03;;;6.10;99.90;;;;;;5052973;28;20041;-88
2022/01/15 04:52:04;;;;;;;11.88;4.40;;;5.70;99.90;;;;;;5052946;28;20068;-82
2022/01/15 04:54:30;;;;;;;10.50;4.20;;;5.70;99.90;;;;;;5052499;28;20060;-85
2022/01/15 04:56:55;;;;;;;8.93;4.40;;;6.30;99.90;;;;;;5052576;28;20059;-83
2022/01/15 04:59:23;;;;;;;9.15;4.13;;;5.70;99.90;;;;;;5046040;28;20053;-89
2022/01/15 05:01:49;;;;;;;8.60;3.70;;;6.20;99.90;;;;;;5013013;28;20085;-85
2022/01/15 05:04:14;;;;;;;8.65;3.72;;;6.30;99.90;;;;;;5013000;28;20448;-84
2022/01/15 05:06:40;;;;;;;6.82;3.42;;;5.70;99.90;;;;;;5012944;28;20049;-84
2022/01/15 05:09:06;;;;;;;7.18;3.45;;;5.70;99.90;;;;;;5017312;28;20451;-87
2022/01/15 05:11:48;;;;;;;7.05;3.63;;;5.70;99.90;;;;;;5038934;28;20426;-88
2022/01/15 05:14:17;;;;;;;8.05;3.47;;;5.60;99.90;;;;;;5052261;28;20045;-80
2022/01/15 05:16:44;;;;;;;7.50;3.65;;;5.60;99.90;;;;;;5052428;28;20047;-87
2022/01/15 05:19:10;;;;;;;8.80;3.90;;;5.60;99.90;;;;;;5052190;28;20048;-84
2022/01/15 05:21:36;;;;;;;8.20;3.83;;;5.60;99.90;;;;;;5052565;28;20045;-89
2022/01/15 05:24:08;;;;;;;8.93;3.88;;;5.60;99.90;;;;;;5052559;28;20045;-90
2022/01/15 05:26:34;;;;;;;7.05;3.30;;;5.60;99.90;;;;;;5051943;28;20055;-88
2022/01/15 05:29:00;;;;;;;9.43;3.85;;;6.10;99.90;;;;;;5051560;28;20135;-89
2022/01/15 05:31:26;;;;;;;7.63;3.92;;;5.50;99.90;;;;;;5037602;28;20042;-86
2022/01/15 05:33:52;;;;;;;8.15;3.85;;;5.60;99.90;;;;;;5032102;28;20092;-88
2022/01/15 05:36:21;;;;;;;6.95;3.72;;;5.60;99.90;;;;;;5032100;28;20053;-83
2022/01/15 05:38:47;;;;;;;6.57;3.67;;;5.60;99.90;;;;;;5032255;28;20122;-89
2022/01/15 05:41:13;;;;;;;8.88;4.20;;;5.60;99.90;;;;;;5036227;28;20033;-84
2022/01/15 05:43:39;;;;;;;6.82;3.35;;;5.60;99.90;;;;;;5052145;28;20056;-85
2022/01/15 05:46:04;;;;;;;6.85;3.40;;;5.60;99.90;;;;;;5051406;28;20045;-84
2022/01/15 05:48:30;;;;;;;6.85;3.58;;;5.60;99.90;;;;;;5032161;28;20064;-84
2022/01/15 05:50:56;;;;;;;10.13;3.90;;;5.80;99.90;;;;;;5051888;28;20036;-89
2022/01/15 05:53:22;;;;;;;9.40;4.35;;;5.60;99.90;;;;;;5051726;28;20109;-89
2022/01/15 05:55:48;;;;;;;8.00;3.92;;;5.50;99.90;;;;;;5051504;28;20480;-89
2022/01/15 05:58:13;;;;;;;8.60;3.97;;;5.50;99.90;;;;;;5051645;28;20044;-86
2022/01/15 06:00:39;;;;;;;9.00;3.80;;;5.70;99.90;;;;;;5036625;28;20473;-88
2022/01/15 06:03:05;;;;;;;8.40;3.72;;;5.50;99.90;;;;;;5030170;28;20476;-82
2022/01/15 06:05:30;;;;;;;7.55;3.15;;;5.50;99.90;;;;;;5031459;28;20087;-88
2022/01/15 06:07:56;;;;;;;6.88;3.55;;;5.50;99.90;;;;;;5031683;28;20046;-88
2022/01/15 06:10:22;;;;;;;8.05;3.83;;;5.80;99.90;;;;;;5030603;28;20056;-87
2022/01/15 06:12:47;;;;;;;7.82;3.47;;;5.50;99.90;;;;;;5043551;28;20092;-89
2022/01/15 06:15:15;;;;;;;9.40;3.90;;;5.50;99.90;;;;;;5013869;28;20042;-84
2022/01/15 06:17:42;;;;;;;7.57;3.92;;;5.50;99.90;;;;;;5021744;28;20055;-85
2022/01/15 06:20:10;;;;;;;7.97;3.47;;;5.50;99.90;;;;;;5017599;28;20128;-83
2022/01/15 06:22:36;;;;;;;7.93;3.97;;;5.40;99.90;;;;;;5031446;28;20052;-82
2022/01/15 06:25:03;;;;;;;8.15;3.55;;;5.40;99.90;;;;;;5047258;28;20033;-83
2022/01/15 06:27:30;;;;;;;7.20;3.72;;;5.60;99.90;;;;;;5051553;28;20124;-83
2022/01/15 06:29:57;;;;;;;5.93;3.20;;;6.20;99.90;;;;;;5036563;28;20176;-85
2022/01/15 06:32:27;;;;;;;9.65;3.38;;;5.40;99.90;;;;;;5012893;28;20485;-90
2022/01/15 06:34:53;;;;;;;6.82;3.35;;;5.40;99.90;;;;;;5030965;28;20056;-91
2022/01/15 06:37:22;;;;;;;8.13;3.30;;;5.40;99.90;;;;;;5031143;28;20046;-90
2022/01/15 06:39:48;;;;;;;7.18;3.15;;;5.40;99.90;;;;;;5031006;28;20061;-89
2022/01/15 06:42:14;;;;;;;5.68;3.10;;;5.40;99.90;;;;;;5041980;28;20424;-88
2022/01/15 06:44:39;;;;;;;5.32;2.80;;;5.40;99.90;;;;;;5049270;28;20048;-87
2022/01/15 06:47:05;;;;;;;8.43;3.75;;;5.40;99.90;;;;;;5050368;28;20057;-83
2022/01/15 06:49:31;;;;;;;6.38;2.92;;;5.40;99.90;;;;;;5050453;28;20052;-89
2022/01/15 06:51:56;;;;;;;4.95;2.60;;;5.40;99.90;;;;;;5050939;28;20041;-87
2022/01/15 06:54:22;;;;;;;5.47;2.22;;;5.40;99.90;;;;;;5050444;28;20052;-90
2022/01/15 06:56:48;;;;;;;6.35;3.05;;;5.40;99.90;;;;;;5050443;28;20095;-83
2022/01/15 06:59:13;;;;;;;4.88;2.47;;;5.40;99.90;;;;;;5037908;28;20041;-87
2022/01/15 07:01:39;;;;;;;4.80;2.40;;;5.40;99.90;;;;;;5032022;28;20037;-84
2022/01/15 07:04:05;;;;;;;3.88;2.22;;;5.30;99.90;;;;;;5029288;28;20057;-83
2022/01/15 07:06:30;;;;;;;5.57;2.53;;;5.30;99.90;;;;;;5030777;28;20045;-82
2022/01/15 07:08:56;;;;;;;5.05;2.50;;;5.30;99.90;;;;;;5031052;28;20107;-89
2022/01/15 07:11:22;;;;;;;5.43;2.85;;;5.30;99.90;;;;;;5030366;28;20038;-89
2022/01/15 07:13:47;;;;;;;7.63;2.90;;;5.30;99.90;;;;;;5031857;28;20423;-83
2022/01/15 07:16:13;;;;;;;5.30;2.17;;;5.30;99.90;;;;;;5030936;28;20115;-82
2022/01/15 07:18:38;;;;;;;4.65;2.15;;;5.30;99.90;;;;;;5030134;28;20473;-85
2022/01/15 07:21:04;;;;;;;4.68;2.55;;;5.30;99.90;;;;;;5030568;28;20448;-86
2022/01/15 07:23:30;;;;;;;5.18;2.45;;;5.30;99.90;;;;;;5030772;28;20045;-89
2022/01/15 07:25:58;;;;;;;5.43;2.42;;;5.30;99.90;;;;;;5029514;28;20690;-89
2022/01/15 07:28:26;;;;;;;6.90;2.50;;;5.30;99.90;;;;;;5030103;28;20064;-85
2022/01/15 07:30:52;;;;;;;6.60;3.05;;;5.70;99.90;;;;;;5012855;28;20045;-89
2022/01/15 07:33:18;;;;;;;4.70;2.42;;;5.50;99.90;;;;;;5012683;28;20053;-83
2022/01/15 07:35:44;;;;;;;5.05;2.35;;;5.90;99.90;;;;;;5030021;28;20048;-82
2022/01/15 07:38:13;;;;;;;6.50;2.92;;;5.70;99.90;;;;;;5030472;28;20042;-83
2022/01/15 07:40:39;;;;;;;6.55;2.92;;;5.30;99.90;;;;;;5030332;28;20567;-89
2022/01/15 07:43:05;;;;;;;5.53;2.88;;;5.30;99.90;;;;;;5030288;28;20077;-86
2022/01/15 07:45:30;;;;;;;8.48;3.05;;;5.30;99.90;;;;;;5030022;28;20091;-82
2022/01/15 07:47:56;;;;;;;6.05;2.90;;;5.30;99.90;;;;;;5030291;28;20057;-82
2022/01/15 07:50:24;;;;;;;7.75;3.38;;;5.30;99.90;;;;;;5029730;28;20080;-90
2022/01/15 07:52:51;;;;;;;7.35;3.47;;;5.40;99.90;;;;;;5012821;28;20049;-83
2022/01/15 07:55:17;;;;;;;7.20;3.58;;;5.30;99.90;;;;;;5043185;28;20480;-85
2022/01/15 07:57:44;;;;;;;7.38;3.85;;;5.40;99.90;;;;;;5049804;28;20045;-82
2022/01/15 08:00:13;;;;;;;8.20;3.97;;;5.30;99.90;;;;;;5017032;28;20060;-84
2022/01/15 08:02:40;;;;;;;10.40;4.32;;;5.30;99.90;;;;;;5048442;28;20091;-83
2022/01/15 08:05:06;;;;;;;9.07;4.63;;;5.30;99.90;;;;;;5049772;28;20110;-87
2022/01/15 08:07:32;;;;;;;10.52;5.35;;;5.30;99.90;;;;;;5049801;28;20124;-87
2022/01/15 08:09:58;;;;;;;11.90;6.25;;;5.30;99.90;;;;;;5050046;28;20148;-79
2022/01/15 08:12:23;;;;;;;12.30;5.40;;;5.30;99.90;;;;;;5050063;28;20480;-85
2022/01/15 08:14:50;;;;;;;11.93;6.40;;;6.00;99.90;;;;;;5048079;28;20098;-86
2022/01/15 08:17:16;;;;;;;11.60;6.22;;;5.90;99.90;;;;;;5050136;28;20080;-84
2022/01/15 08:19:42;;;;;;;12.40;6.22;;;5.30;99.90;;;;;;5053498;28;20512;-84
2022/01/15 08:22:08;;;;;;;13.05;6.05;;;5.30;99.90;;;;;;5051724;28;20053;-88
2022/01/15 08:24:33;;;;;;;15.05;6.45;;;5.30;99.90;;;;;;5034552;28;20665;-87
2022/01/15 08:26:59;;;;;;;13.13;6.22;;;5.30;99.90;;;;;;5031069;28;20077;-83
2022/01/15 08:29:25;;;;;;;14.60;6.38;;;5.30;99.90;;;;;;5025528;28;20053;-83
2022/01/15 08:31:50;;;;;;;14.02;6.30;;;5.30;99.90;;;;;;5026904;28;20480;-86
2022/01/15 08:34:16;;;;;;;14.55;6.13;;;5.30;99.90;;;;;;5033397;28;20041;-81
2022/01/15 08:36:42;;;;;;;11.73;5.85;;;5.30;99.90;;;;;;5033121;28;20029;-88
2022/01/15 08:39:08;;;;;;;11.82;5.25;;;5.60;99.90;;;;;;5015233;28;20095;-80
2022/01/15 08:41:34;;;;;;;11.02;5.00;;;5.30;99.90;;;;;;5032870;28;20131;-87
2022/01/15 08:44:00;;;;;;;10.95;4.90;;;5.30;99.90;;;;;;5014484;28;20045;-87
2022/01/15 08:46:27;;;;;;;9.50;4.75;;;5.30;99.90;;;;;;5032374;28;20041;-83
2022/01/15 08:48:53;;;;;;;12.30;5.85;;;5.30;99.90;;;;;;5032980;28;20127;-83
2022/01/15 08:51:19;;;;;;;10.65;4.93;;;5.30;99.90;;;;;;5032531;28;20057;-85
2022/01/15 08:53:44;;;;;;;11.40;5.40;;;5.20;99.90;;;;;;5032490;28;20530;-83
2022/01/15 08:56:10;;;;;;;13.13;5.88;;;5.30;99.90;;;;;;5033100;28;20132;-86
2022/01/15 08:58:36;;;;;;;9.77;5.05;;;5.30;99.90;;;;;;5032633;28;20121;-88
2022/01/15 09:01:04;;;;;;;10.80;5.35;;;5.30;99.90;;;;;;5031989;28;20083;-86
2022/01/15 09:03:33;;;;;;;11.65;5.32;;;5.30;99.90;;;;;;5029863;28;20420;-88
2022/01/15 09:05:59;;;;;;;12.20;6.15;;;5.30;99.90;;;;;;5031975;28;20447;-86
2022/01/15 09:08:24;;;;;;;11.88;5.43;;;5.30;99.90;;;;;;5032254;28;20041;-80
2022/01/15 09:10:53;;;;;;;11.38;5.15;;;5.30;99.90;;;;;;5032705;28;20100;-86
2022/01/15 09:13:20;;;;;;;11.57;5.10;;;5.30;99.90;;;;;;5032495;28;20053;-81
2022/01/15 09:15:47;;;;;;;11.63;5.10;;;5.30;99.90;;;;;;5032626;28;20128;-83
2022/01/15 09:18:15;;;;;;;9.27;4.90;;;5.30;99.90;;;;;;5032731;28;20405;-90
2022/01/15 09:20:41;;;;;;;11.57;5.50;;;5.30;99.90;;;;;;5032301;28;20049;-88
2022/01/15 09:23:08;;;;;;;11.82;5.55;;;5.30;99.90;;;;;;5032196;28;20057;-83
2022/01/15 09:25:34;;;;;;;11.63;5.82;;;5.30;99.90;;;;;;5032574;28;20054;-85
2022/01/15 09:30:43;;;;;;;12.55;6.40;;;5.80;99.90;;;;;;5031511;28;20389;-90
2022/01/15 09:33:09;;;;;;;13.65;7.35;;;5.30;99.90;;;;;;5031331;28;20144;-82
2022/01/15 09:35:35;;;;;;;14.52;6.72;;;5.20;99.90;;;;;;5013463;28;20057;-85
2022/01/15 09:38:01;;;;;;;16.13;7.15;;;5.20;99.90;;;;;;5031551;28;20060;-84
2022/01/15 09:40:27;;;;;;;13.93;7.03;;;5.20;99.90;;;;;;5003459;28;20062;-85
2022/01/15 09:42:54;;;;;;;15.90;7.95;;;5.60;99.90;;;;;;5014702;28;20496;-88
2022/01/15 09:45:22;;;;;;;16.15;7.53;;;5.20;99.90;;;;;;5030221;28;20508;-84
2022/01/15 09:47:59;;;;;;;16.10;6.80;;;5.20;99.90;;;;;;5031686;28;20120;-82
2022/01/15 09:50:26;;;;;;;15.88;7.53;;;5.20;99.90;;;;;;5032546;28;20053;-83
2022/01/15 09:52:56;;;;;;;16.08;7.38;;;5.20;99.90;;;;;;5031782;28;20053;-88
2022/01/15 09:55:23;;;;;;;13.65;6.90;;;5.30;99.90;;;;;;5031379;28;20059;-88
2022/01/15 09:57:50;;;;;;;18.58;7.88;;;5.30;99.90;;;;;;5031350;28;20493;-88
2022/01/15 10:00:18;;;;;;;14.70;7.05;;;5.30;99.90;;;;;;5031671;28;20085;-84
2022/01/15 10:02:47;;;;;;;14.80;7.68;;;5.30;99.90;;;;;;5031452;28;20041;-83
2022/01/15 10:05:15;;;;;;;14.50;7.80;;;5.30;99.90;;;;;;5031304;28;20106;-86
2022/01/15 10:07:59;;;;;;;15.80;8.13;;;5.30;99.90;;;;;;5031626;28;20069;-82
2022/01/15 10:10:26;;;;;;;12.50;6.95;;;5.40;99.90;;;;;;5030992;28;20100;-87
2022/01/15 10:12:52;;;;;;;14.82;7.03;;;5.30;99.90;;;;;;5019889;28;20037;-80
2022/01/15 10:15:20;;;;;;;12.77;6.35;;;5.20;99.90;;;;;;5027037;28;20081;-83
2022/01/15 10:17:46;;;;;;;15.85;7.38;;;5.60;99.90;;;;;;5012886;28;20089;-85
2022/01/15 10:20:23;;;;;;;12.60;6.70;;;5.20;99.90;;;;;;5029812;28;20523;-84
2022/01/15 10:22:51;;;;;;;13.48;7.13;;;5.30;99.90;;;;;;5031241;28;20400;-83
2022/01/15 10:25:21;;;;;;;13.70;6.68;;;5.20;99.90;;;;;;5031262;28;20096;-86
2022/01/15 10:27:54;;;;;;;17.23;7.40;;;5.20;99.90;;;;;;5030516;28;20393;-80
2022/01/15 10:30:24;;;;;;;15.18;7.72;;;5.20;99.90;;;;;;5029536;28;20080;-80
2022/01/15 10:32:59;;;;;;;13.52;7.40;;;5.20;99.90;;;;;;5012759;28;20124;-82
2022/01/15 10:35:33;;;;;;;12.35;7.07;;;5.10;99.90;;;;;;5025047;28;20521;-81
2022/01/15 10:38:00;;;;;;;12.90;7.00;;;5.10;99.90;;;;;;5031543;28;20690;-83
2022/01/15 10:40:43;;;;;;;14.25;7.68;;;5.10;99.90;;;;;;5047577;28;20092;-82
2022/01/15 10:43:10;;;;;;;13.57;7.38;;;5.10;99.90;;;;;;5030672;28;20148;-83
2022/01/15 10:45:54;;;;;;;15.52;7.00;;;5.10;99.90;;;;;;5020170;28;20497;-83
2022/01/15 10:48:22;;;;;;;12.88;6.90;;;5.10;99.90;;;;;;5010843;28;20048;-84
2022/01/15 10:50:59;;;;;;;15.88;7.40;;;5.10;99.90;;;;;;5011399;28;20049;-86
2022/01/15 10:53:36;;;;;;;13.38;6.30;;;5.10;99.90;;;;;;5010700;28;20053;-83
2022/01/15 10:56:04;;;;;;;12.10;6.63;;;5.10;99.90;;;;;;5009980;28;20469;-83
2022/01/15 10:58:30;;;;;;;16.85;8.05;;;5.10;99.90;;;;;;5010425;28;20125;-80
2022/01/15 11:00:57;;;;;;;17.08;8.57;;;5.10;99.90;;;;;;5009951;28;20077;-83
2022/01/15 11:03:35;;;;;;;18.60;8.68;;;5.10;99.90;;;;;;5011002;28;20093;-82
2022/01/15 11:06:01;;;;;;;18.08;8.93;;;5.10;99.90;;;;;;5030375;28;20049;-83
2022/01/15 11:08:28;;;;;;;14.68;8.35;;;5.10;99.90;;;;;;5030745;28;20085;-89
2022/01/15 11:11:03;;;;;;;18.85;8.60;;;5.10;99.90;;;;;;5030888;28;20100;-82
2022/01/15 11:13:30;;;;;;;18.35;8.40;;;5.10;99.90;;;;;;5029046;28;20052;-81
2022/01/15 11:16:13;;;;;;;19.70;9.15;;;5.00;99.90;;;;;;5030025;28;20048;-81
2022/01/15 11:18:50;;;;;;;18.95;8.98;;;5.00;99.90;;;;;;5030157;28;20049;-83
2022/01/15 11:21:18;;;;;;;21.77;10.32;;;5.10;99.90;;;;;;5030431;28;20063;-82
2022/01/15 11:23:44;;;;;;;22.75;9.48;;;5.00;99.90;;;;;;5030680;28;20041;-83
2022/01/15 11:26:12;;;;;;;22.65;10.68;;;5.00;99.90;;;;;;5030426;28;20124;-81
2022/01/15 11:28:38;;;;;;;21.75;11.13;;;5.00;99.90;;;;;;5030261;28;20489;-79
2022/01/15 11:31:34;;;;;;;24.63;11.05;;;5.00;99.90;;;;;;5030106;28;20046;-87
2022/01/15 11:34:02;;;;;;;23.40;10.40;;;5.00;99.90;;;;;;5026229;28;20057;-83
2022/01/15 11:36:35;;;;;;;25.27;11.60;;;5.00;99.90;;;;;;5030355;28;20034;-79
2022/01/15 11:39:05;;;;;;;23.70;10.88;;;5.10;99.90;;;;;;5029841;28;20045;-81
2022/01/15 11:41:31;;;;;;;23.33;10.70;;;5.00;99.90;;;;;;5029754;28;20396;-84
2022/01/15 11:43:57;;;;;;;24.05;10.15;;;5.00;99.90;;;;;;5029193;28;20049;-85
2022/01/15 11:46:41;;;;;;;23.58;10.63;;;5.00;99.90;;;;;;5030000;28;20052;-78
2022/01/15 11:49:33;;;;;;;21.97;11.13;;;5.00;99.90;;;;;;5012769;28;20072;-87
2022/01/15 11:52:12;;;;;;;23.20;10.93;;;4.90;99.90;;;;;;5031618;28;20126;-80
2022/01/15 11:54:56;;;;;;;26.13;12.07;;;4.90;99.90;;;;;;5033108;28;20088;-87
2022/01/15 11:57:30;;;;;;;26.50;10.98;;;4.90;99.90;;;;;;5033190;28;20045;-89
2022/01/15 11:59:57;;;;;;;26.17;12.40;;;4.90;99.90;;;;;;5034512;28;20107;-81
2022/01/15 12:02:30;;;;;;;21.48;11.43;;;4.90;99.90;;;;;;5032175;28;20053;-88
2022/01/15 12:05:14;;;;;;;25.67;11.55;;;4.90;99.90;;;;;;5034428;28;20052;-89
2022/01/15 12:07:40;;;;;;;21.70;11.27;;;4.90;99.90;;;;;;5034708;28;20042;-83
2022/01/15 12:10:09;;;;;;;22.13;11.00;;;4.90;99.90;;;;;;5032754;28;20045;-88
2022/01/15 12:12:42;;;;;;;21.85;11.25;;;4.80;99.90;;;;;;5034314;28;20457;-84
2022/01/15 12:15:28;;;;;;;21.98;11.35;;;4.90;99.90;;;;;;5033200;28;20050;-87
2022/01/15 12:17:59;;;;;;;23.70;12.75;;;4.90;99.90;;;;;;5033407;28;20049;-87
2022/01/15 12:20:26;;;;;;;22.83;12.82;;;4.80;99.90;;;;;;5016038;28;20060;-81
2022/01/15 12:23:02;;;;;;;33.47;17.55;;;4.80;99.90;;;;;;5032479;28;20057;-87
2022/01/15 12:25:30;;;;;;;25.55;14.32;;;4.80;99.90;;;;;;5033334;28;20084;-88
2022/01/15 12:27:57;;;;;;;29.40;14.60;;;4.80;99.90;;;;;;5034014;28;20077;-83
2022/01/15 12:30:28;;;;;;;22.65;12.75;;;4.80;99.90;;;;;;5032476;28;20045;-79
2022/01/15 12:33:00;;;;;;;25.38;13.00;;;4.90;99.90;;;;;;5033982;28;20057;-89
2022/01/15 12:35:33;;;;;;;26.30;11.60;;;4.80;99.90;;;;;;5034162;28;20128;-86
2022/01/15 12:38:03;;;;;;;23.85;12.30;;;5.40;99.90;;;;;;5033358;28;20045;-80
2022/01/15 12:40:36;;;;;;;22.15;11.82;;;4.90;99.90;;;;;;5032348;28;20049;-84
2022/01/15 12:43:08;;;;;;;25.70;11.77;;;4.90;99.90;;;;;;5012554;28;20116;-89
2022/01/15 12:45:36;;;;;;;24.63;11.60;;;4.90;99.90;;;;;;5022830;28;20045;-84
2022/01/15 12:48:02;;;;;;;24.80;12.77;;;4.90;99.90;;;;;;5033172;28;20049;-84
2022/01/15 12:50:29;;;;;;;26.10;13.80;;;4.90;99.90;;;;;;5033041;28;20045;-87
2022/01/15 12:53:02;;;;;;;24.58;13.73;;;4.90;99.90;;;;;;5033328;28;20052;-85
2022/01/15 12:55:34;;;;;;;25.83;12.80;;;4.90;99.90;;;;;;5033174;28;20045;-83
2022/01/15 12:58:01;;;;;;;26.20;13.75;;;4.80;99.90;;;;;;5033155;28;20085;-85
2022/01/15 13:00:29;;;;;;;25.20;13.90;;;4.90;99.90;;;;;;5031679;28;20042;-86
2022/01/15 13:03:07;;;;;;;26.90;14.38;;;4.90;99.90;;;;;;5030723;28;20057;-81
2022/01/15 13:05:39;;;;;;;31.95;15.30;;;4.90;99.90;;;;;;5031050;28;20144;-83
2022/01/15 13:08:07;;;;;;;29.45;14.68;;;4.80;99.90;;;;;;5031512;28;20053;-78
2022/01/15 13:10:52;;;;;;;28.75;15.07;;;4.90;99.90;;;;;;5014951;28;20052;-87
2022/01/15 13:13:32;;;;;;;27.50;14.43;;;4.90;99.90;;;;;;5015535;28;20045;-87